Nikiski, Alaska
Current Conditions -  °F | °C
As of 1:53 AM on Sunday 21 Dec 2014 (Local Time) from PAEN Reporting Station
Scattered Clouds Scattered Clouds  
Wind Chill: 18°   Ceiling: Unl
Heat Index: 18°   Visibility: 10mi
Dew Point: 15°   Wind: 3mph
Humidity: 88%   Direction: 20°NNE
Pressure: 29.01"   Gusts: NA
Location:  60.72°N, 151.38°W
Report Text: PAEN 211053Z AUTO 02003KT 10SM SCT110 M08/M09 A2901 RMK AO2 SLP826 T10781094 TSNO
Loading
Personal Weather Stations






























Interactive Weather Map New forecast layout! Learn more

10-Day Weather Forecast

Advertisements
Track Severe Weather on mobile